Time;durP1;ratioP1;P1;durP2;ratioP2;P2;SDS_P1;SDS_P2;PMS_P1;PMS_P2;Temp;Humidity;BMP_temperature;BMP_pressure;BME280_temperature;BME280_humidity;BME280_pressure;Samples;Min_cycle;Max_cycle;Signal;HPM_P1;HPM_P2
2023/07/23 00:00:06;;;;;;;1.40;1.30;;;;;;;16.85;100.00;100012.16;1676542;85;21059;-61
2023/07/23 00:02:36;;;;;;;3.58;1.47;;;;;;;16.80;100.00;100018.45;1657174;85;21127;-63
2023/07/23 00:05:06;;;;;;;1.40;1.30;;;;;;;16.78;100.00;100030.84;1654404;87;21486;-62
2023/07/23 00:07:36;;;;;;;1.47;1.30;;;;;;;16.77;100.00;100033.31;1650017;87;21035;-62
2023/07/23 00:10:05;;;;;;;1.40;1.30;;;;;;;16.75;100.00;100032.18;1654253;86;21023;-62
2023/07/23 00:12:34;;;;;;;1.22;1.12;;;;;;;16.74;100.00;100031.05;1649864;87;21027;-62
2023/07/23 00:15:04;;;;;;;1.40;1.20;;;;;;;16.71;100.00;100029.61;1654355;87;21104;-62
2023/07/23 00:17:33;;;;;;;1.77;1.20;;;;;;;16.72;100.00;100020.77;1654283;87;21054;-61
2023/07/23 00:20:04;;;;;;;1.30;1.20;;;;;;;16.72;100.00;100024.38;1654589;85;21148;-61
2023/07/23 00:22:32;;;;;;;4.45;1.45;;;;;;;16.69;100.00;100016.57;1649938;87;21439;-65
2023/07/23 00:25:01;;;;;;;1.98;1.27;;;;;;;16.70;100.00;100025.16;1654500;86;21098;-61
2023/07/23 00:27:30;;;;;;;1.50;1.20;;;;;;;16.70;100.00;100025.71;1654460;87;21027;-61
2023/07/23 00:29:59;;;;;;;3.00;1.57;;;;;;;16.68;100.00;100027.34;1654340;85;21474;-62
2023/07/23 00:32:28;;;;;;;1.30;1.17;;;;;;;16.64;100.00;100033.04;1654337;87;21110;-62
2023/07/23 00:34:57;;;;;;;1.70;1.10;;;;;;;16.64;100.00;100037.73;1654332;87;21003;-62
2023/07/23 00:37:27;;;;;;;1.10;1.00;;;;;;;16.62;100.00;100042.12;1654310;87;21043;-61
2023/07/23 00:39:57;;;;;;;1.30;1.20;;;;;;;16.61;100.00;100050.13;1654303;87;21042;-63
2023/07/23 00:42:26;;;;;;;1.45;1.20;;;;;;;16.58;100.00;100051.16;1650003;86;21130;-62
2023/07/23 00:44:54;;;;;;;2.83;1.10;;;;;;;16.54;100.00;100043.06;1714473;83;21160;-62
2023/07/23 00:47:23;;;;;;;1.35;1.20;;;;;;;16.51;100.00;100049.08;1717893;83;21066;-62
2023/07/23 00:49:53;;;;;;;1.12;1.02;;;;;;;16.49;100.00;100050.70;1683438;85;21046;-61
2023/07/23 00:52:22;;;;;;;2.08;1.20;;;;;;;16.48;100.00;100049.03;1683343;84;21474;-61
2023/07/23 00:54:51;;;;;;;2.35;1.30;;;;;;;16.48;100.00;100047.64;1683324;84;21106;-62
2023/07/23 00:57:20;;;;;;;5.85;1.55;;;;;;;16.48;100.00;100058.70;1683623;84;21654;-61
2023/07/23 00:59:49;;;;;;;1.87;1.35;;;;;;;16.49;100.00;100060.39;1698346;83;21125;-61
2023/07/23 01:02:17;;;;;;;1.02;0.98;;;;;;;16.48;100.00;100055.94;1683235;85;21110;-61
2023/07/23 01:04:46;;;;;;;1.40;1.22;;;;;;;16.47;100.00;100063.94;1683562;84;21540;-61
2023/07/23 01:07:16;;;;;;;0.93;0.80;;;;;;;16.47;100.00;100056.48;1718277;83;21069;-60
2023/07/23 01:09:44;;;;;;;1.45;1.00;;;;;;;16.46;100.00;100053.42;1718505;83;21070;-62
2023/07/23 01:12:14;;;;;;;2.92;1.00;;;;;;;16.46;100.00;100062.27;1718368;82;21065;-62
2023/07/23 01:14:43;;;;;;;1.65;1.07;;;;;;;16.47;100.00;100062.02;1683354;85;21051;-62
2023/07/23 01:17:13;;;;;;;2.33;1.10;;;;;;;16.47;100.00;100070.31;1683404;84;21039;-63
2023/07/23 01:19:41;;;;;;;0.95;0.93;;;;;;;16.45;100.00;100071.64;1718032;83;21125;-62
2023/07/23 01:22:11;;;;;;;2.25;1.00;;;;;;;16.45;100.00;100068.88;1683512;85;21102;-62
2023/07/23 01:24:40;;;;;;;1.55;1.30;;;;;;;16.46;100.00;100072.78;1683171;85;21493;-62
2023/07/23 01:27:09;;;;;;;3.20;1.20;;;;;;;16.48;100.00;100072.53;1684337;84;21015;-63
2023/07/23 01:29:38;;;;;;;1.42;1.10;;;;;;;16.46;100.00;100069.17;1683450;84;21034;-62
2023/07/23 01:32:07;;;;;;;2.12;1.35;;;;;;;16.44;100.00;100068.03;1683352;85;21067;-62
2023/07/23 01:34:37;;;;;;;1.27;1.17;;;;;;;16.45;100.00;100064.73;1718651;83;21482;-61
2023/07/23 01:37:05;;;;;;;1.35;1.22;;;;;;;16.43;100.00;100069.12;1718200;83;21116;-62
2023/07/23 01:39:35;;;;;;;1.40;1.20;;;;;;;16.43;100.00;100070.50;1683580;85;21023;-62
2023/07/23 01:42:07;;;;;;;1.92;1.30;;;;;;;16.42;100.00;100073.52;1718045;83;21580;-62
2023/07/23 01:44:36;;;;;;;1.30;1.20;;;;;;;16.39;100.00;100072.08;1718100;83;21077;-63
2023/07/23 01:47:05;;;;;;;3.60;1.30;;;;;;;16.35;100.00;100067.28;1683287;85;21516;-63
2023/07/23 01:49:34;;;;;;;1.37;1.27;;;;;;;16.34;100.00;100078.04;1683453;85;21066;-62
2023/07/23 01:52:05;;;;;;;1.57;1.35;;;;;;;16.33;100.00;100076.36;1683399;85;21486;-62
2023/07/23 01:54:34;;;;;;;2.55;1.40;;;;;;;16.32;100.00;100074.14;1664439;85;21102;-63
2023/07/23 01:57:03;;;;;;;2.27;1.70;;;;;;;16.33;100.00;100079.12;1649938;87;21082;-63
2023/07/23 01:59:33;;;;;;;2.45;1.72;;;;;;;16.32;100.00;100073.30;1683242;85;21459;-62
2023/07/23 02:02:04;;;;;;;2.75;1.70;;;;;;;16.32;100.00;100075.52;1683435;85;21019;-62
2023/07/23 02:04:32;;;;;;;2.10;1.90;;;;;;;16.32;100.00;100078.28;1683404;85;21086;-64
2023/07/23 02:07:02;;;;;;;1.85;1.70;;;;;;;16.33;100.00;100088.80;1683567;84;21039;-61
2023/07/23 02:09:31;;;;;;;2.33;1.95;;;;;;;16.32;100.00;100078.28;1683232;85;21498;-64
2023/07/23 02:12:02;;;;;;;2.00;1.82;;;;;;;16.33;100.00;100081.89;1683456;85;21035;-62
2023/07/23 02:14:31;;;;;;;1.90;1.80;;;;;;;16.32;100.00;100094.03;1683478;85;21055;-64
2023/07/23 02:17:00;;;;;;;3.52;1.67;;;;;;;16.32;100.00;100084.36;1606855;88;21118;-62
2023/07/23 02:19:30;;;;;;;1.90;1.70;;;;;;;16.33;100.00;100077.20;1638619;87;21117;-62
2023/07/23 02:21:58;;;;;;;2.00;1.80;;;;;;;16.35;100.00;100082.48;1638630;87;21117;-62
2023/07/23 02:24:27;;;;;;;2.37;1.92;;;;;;;16.35;100.00;100079.18;1638710;86;21214;-62
2023/07/23 02:26:57;;;;;;;2.40;2.17;;;;;;;16.34;100.00;100076.11;1616538;87;21143;-63
2023/07/23 02:29:26;;;;;;;4.22;2.08;;;;;;;16.33;100.00;100076.36;1638648;87;21065;-63
2023/07/23 02:31:55;;;;;;;2.67;2.40;;;;;;;16.32;100.00;100075.52;1638608;87;21117;-63
2023/07/23 02:34:23;;;;;;;2.33;2.10;;;;;;;16.33;100.00;100079.97;1653657;83;21121;-64
2023/07/23 02:36:52;;;;;;;3.33;2.42;;;;;;;16.31;100.00;100077.14;1683172;84;21054;-62
2023/07/23 02:39:21;;;;;;;3.27;2.20;;;;;;;16.28;100.00;100082.62;1683419;85;21062;-64
2023/07/23 02:41:50;;;;;;;4.65;1.98;;;;;;;16.28;100.00;100085.38;1683262;84;21467;-63
2023/07/23 02:44:18;;;;;;;4.95;2.50;;;;;;;16.28;100.00;100090.07;1683160;84;21070;-62
2023/07/23 02:46:47;;;;;;;3.75;2.50;;;;;;;16.27;100.00;100093.38;1683081;85;21070;-61
2023/07/23 02:49:16;;;;;;;2.58;2.30;;;;;;;16.29;100.00;100100.05;1664218;84;21035;-62
2023/07/23 02:51:45;;;;;;;4.47;2.70;;;;;;;16.30;100.00;100105.88;1649852;86;21082;-62
2023/07/23 02:54:14;;;;;;;3.40;2.47;;;;;;;16.30;100.00;100099.80;1658801;86;21457;-63
2023/07/23 02:56:43;;;;;;;4.12;2.58;;;;;;;16.29;100.00;100106.41;1656511;87;21066;-64
2023/07/23 02:59:12;;;;;;;3.30;2.60;;;;;;;16.29;100.00;100109.73;1663846;86;21046;-63
2023/07/23 03:01:42;;;;;;;4.45;2.60;;;;;;;16.28;100.00;100111.65;1641692;86;21489;-62
2023/07/23 03:04:13;;;;;;;3.45;2.40;;;;;;;16.29;100.00;100108.34;1664021;86;21105;-63
2023/07/23 03:06:42;;;;;;;4.55;2.70;;;;;;;16.30;100.00;100121.92;1663795;86;21021;-63
2023/07/23 03:09:11;;;;;;;3.50;2.77;;;;;;;16.30;100.00;100123.31;1663967;86;21030;-62
2023/07/23 03:11:42;;;;;;;4.37;2.75;;;;;;;16.32;100.00;100121.69;1643807;86;21018;-64
2023/07/23 03:14:10;;;;;;;3.85;2.70;;;;;;;16.35;100.00;100123.96;1663928;86;21045;-63
2023/07/23 03:16:39;;;;;;;3.25;2.92;;;;;;;16.40;100.00;100126.84;1663789;86;22031;-63
2023/07/23 03:19:08;;;;;;;4.22;2.92;;;;;;;16.44;100.00;100136.33;1663962;86;21042;-62
2023/07/23 03:21:37;;;;;;;4.05;2.70;;;;;;;16.46;100.00;100134.16;1663963;86;21053;-62
2023/07/23 03:24:07;;;;;;;3.70;2.85;;;;;;;16.48;100.00;100141.13;1663883;85;21049;-63
2023/07/23 03:26:36;;;;;;;4.70;2.72;;;;;;;16.52;100.00;100140.11;1643306;86;21105;-63
2023/07/23 03:29:06;;;;;;;3.55;2.65;;;;;;;16.52;100.00;100148.41;1664121;86;21031;-63
2023/07/23 03:31:34;;;;;;;4.42;2.87;;;;;;;16.54;100.00;100153.16;1664027;86;21042;-63
2023/07/23 03:34:04;;;;;;;4.78;2.70;;;;;;;16.55;100.00;100149.30;1641789;86;21024;-63
2023/07/23 03:36:35;;;;;;;3.58;2.77;;;;;;;16.59;100.00;100156.03;1641862;86;21050;-63
2023/07/23 03:39:04;;;;;;;5.95;2.70;;;;;;;16.62;100.00;100151.39;1663767;86;21042;-63
2023/07/23 03:41:33;;;;;;;4.60;2.50;;;;;;;16.65;100.00;100156.47;1663909;85;21037;-63
2023/07/23 03:44:03;;;;;;;2.65;2.45;;;;;;;16.70;100.00;100152.98;1662337;84;21113;-64
2023/07/23 03:46:33;;;;;;;4.62;2.58;;;;;;;16.73;100.00;100156.64;1659759;86;21132;-63
2023/07/23 03:49:01;;;;;;;2.87;2.40;;;;;;;16.73;100.00;100152.48;1659916;86;21035;-63
2023/07/23 03:51:30;;;;;;;2.90;2.60;;;;;;;16.75;100.00;100160.00;1659710;86;21131;-64
2023/07/23 03:53:59;;;;;;;2.67;2.40;;;;;;;16.77;100.00;100164.75;1659548;86;21094;-64
2023/07/23 03:56:28;;;;;;;3.75;3.10;;;;;;;16.77;100.00;100155.91;1659824;86;21077;-62
2023/07/23 03:58:57;;;;;;;5.15;2.80;;;;;;;16.79;100.00;100167.56;1659876;85;21089;-63
2023/07/23 04:01:26;;;;;;;2.77;2.47;;;;;;;16.82;100.00;100168.16;1659800;86;21058;-62
2023/07/23 04:03:56;;;;;;;5.05;3.67;;;;;;;16.85;100.00;100160.75;1659955;86;21065;-62
2023/07/23 04:06:25;;;;;;;7.83;5.20;;;;;;;16.87;100.00;100151.66;1659799;86;21046;-64
2023/07/23 04:08:54;;;;;;;4.78;3.80;;;;;;;16.92;100.00;100158.18;1659859;86;20995;-62
2023/07/23 04:11:24;;;;;;;5.00;3.30;;;;;;;16.98;100.00;100159.13;1659771;86;21051;-63
2023/07/23 04:13:54;;;;;;;4.10;2.70;;;;;;;17.05;100.00;100158.44;1659989;86;21093;-63
2023/07/23 04:16:23;;;;;;;2.98;2.72;;;;;;;17.08;100.00;100158.78;1659877;86;21540;-62
2023/07/23 04:18:53;;;;;;;3.33;2.45;;;;;;;17.14;99.91;100161.66;1659894;86;21062;-62
2023/07/23 04:21:22;;;;;;;4.75;2.40;;;;;;;17.17;99.67;100163.39;1659851;86;21486;-63
2023/07/23 04:23:52;;;;;;;2.98;2.67;;;;;;;17.20;99.33;100162.05;1659965;86;21098;-63
2023/07/23 04:26:22;;;;;;;2.75;2.30;;;;;;;17.24;99.33;100168.78;1659826;86;21115;-63
2023/07/23 04:28:50;;;;;;;2.87;2.50;;;;;;;17.32;99.29;100164.23;1659733;86;21524;-62
2023/07/23 04:31:18;;;;;;;2.60;2.40;;;;;;;17.37;99.07;100163.78;1659781;86;21074;-61
2023/07/23 04:33:47;;;;;;;2.98;2.42;;;;;;;17.43;98.65;100162.78;1659959;86;21022;-63
2023/07/23 04:36:16;;;;;;;4.90;2.80;;;;;;;17.49;98.38;100169.26;1660077;86;21038;-63
2023/07/23 04:38:45;;;;;;;4.67;2.60;;;;;;;17.57;98.21;100168.05;1659803;86;21507;-63
2023/07/23 04:41:14;;;;;;;2.92;2.40;;;;;;;17.61;97.81;100170.06;1659723;86;21031;-62
2023/07/23 04:43:43;;;;;;;2.92;2.70;;;;;;;17.62;96.90;100171.75;1659686;86;21062;-62
2023/07/23 04:46:12;;;;;;;3.00;2.60;;;;;;;17.63;96.72;100172.59;1660118;86;21023;-64
2023/07/23 04:48:41;;;;;;;4.80;4.35;;;;;;;17.67;96.46;100177.95;1659867;86;21055;-63
2023/07/23 04:51:10;;;;;;;4.37;2.90;;;;;;;17.72;96.44;100173.89;1659581;86;21085;-62
2023/07/23 04:53:39;;;;;;;10.38;7.33;;;;;;;17.78;96.04;100176.20;1659872;86;21078;-63
2023/07/23 04:56:08;;;;;;;3.83;3.12;;;;;;;17.80;95.22;100169.87;1659989;86;21110;-62
2023/07/23 04:58:37;;;;;;;5.15;2.77;;;;;;;17.86;95.21;100166.93;1659447;86;21047;-62
2023/07/23 05:01:09;;;;;;;3.08;2.70;;;;;;;17.94;94.72;100173.44;1659634;86;21548;-64
2023/07/23 05:03:39;;;;;;;3.65;2.52;;;;;;;17.99;94.27;100165.21;1660052;86;21324;-63
2023/07/23 05:06:07;;;;;;;6.35;3.17;;;;;;;18.05;93.88;100166.97;1659849;86;21038;-63
2023/07/23 05:08:36;;;;;;;3.98;2.70;;;;;;;18.11;93.31;100171.22;1659752;86;21484;-63
2023/07/23 05:11:06;;;;;;;4.50;2.95;;;;;;;18.13;92.35;100162.09;1659973;86;21038;-63
2023/07/23 05:13:37;;;;;;;3.30;3.00;;;;;;;18.14;92.01;100162.39;1660171;86;21038;-62
2023/07/23 05:16:06;;;;;;;3.58;2.80;;;;;;;18.16;91.77;100163.81;1660079;86;21074;-63
2023/07/23 05:18:35;;;;;;;3.25;2.95;;;;;;;18.23;91.45;100155.35;1659668;85;21474;-62
2023/07/23 05:21:06;;;;;;;3.72;3.00;;;;;;;18.35;91.23;100145.00;1659704;86;21054;-62
2023/07/23 05:23:35;;;;;;;3.45;3.00;;;;;;;18.55;91.15;100140.28;1659767;86;21066;-62
2023/07/23 05:26:03;;;;;;;4.40;3.20;;;;;;;18.79;90.37;100145.08;1659824;86;21050;-63
2023/07/23 05:28:33;;;;;;;4.72;3.10;;;;;;;19.04;89.44;100137.64;1659705;86;21068;-63
2023/07/23 05:31:01;;;;;;;3.62;2.70;;;;;;;19.35;87.92;100142.98;1659867;86;21026;-64
2023/07/23 05:33:31;;;;;;;9.28;3.60;;;;;;;19.59;86.05;100139.68;1659785;86;21054;-63
2023/07/23 05:36:02;;;;;;;5.17;2.70;;;;;;;19.80;83.36;100136.53;1659929;86;21042;-63
2023/07/23 05:38:31;;;;;;;4.30;3.00;;;;;;;19.97;82.10;100143.89;1659739;86;21486;-66
2023/07/23 05:41:00;;;;;;;4.53;3.05;;;;;;;20.11;79.81;100146.51;1660064;86;21035;-63
2023/07/23 05:43:29;;;;;;;4.50;2.72;;;;;;;20.29;79.16;100155.84;1664572;85;21560;-62
2023/07/23 05:45:58;;;;;;;3.77;2.77;;;;;;;20.53;79.00;100152.98;1671754;85;21589;-64
2023/07/23 05:48:27;;;;;;;3.12;2.80;;;;;;;20.76;76.87;100153.10;1663895;86;21042;-64
2023/07/23 05:50:55;;;;;;;5.37;3.80;;;;;;;20.88;75.69;100155.14;1718346;83;21479;-64
2023/07/23 05:53:24;;;;;;;5.58;3.30;;;;;;;21.00;74.00;100161.03;1718218;83;21042;-63
2023/07/23 05:55:52;;;;;;;3.62;3.00;;;;;;;21.08;73.93;100161.34;1718093;83;21046;-64
2023/07/23 05:58:21;;;;;;;3.58;3.00;;;;;;;21.21;73.25;100169.75;1683573;85;21078;-64
2023/07/23 06:00:49;;;;;;;4.30;3.90;;;;;;;21.29;72.90;100165.63;1663894;85;22097;-64
2023/07/23 06:03:18;;;;;;;4.60;2.90;;;;;;;21.26;71.89;100166.17;1718270;83;21101;-64
2023/07/23 06:05:47;;;;;;;4.55;3.00;;;;;;;21.18;72.18;100170.30;1683476;85;21031;-64
2023/07/23 06:08:16;;;;;;;3.33;2.85;;;;;;;21.24;72.56;100175.36;1718055;83;21034;-64
2023/07/23 06:10:44;;;;;;;3.95;3.00;;;;;;;21.41;72.03;100172.63;1718051;83;21030;-64
2023/07/23 06:13:13;;;;;;;3.70;2.90;;;;;;;21.62;71.52;100169.91;1683348;85;21118;-64
2023/07/23 06:15:42;;;;;;;3.08;2.75;;;;;;;21.82;70.48;100163.80;1718543;83;21089;-64
2023/07/23 06:18:11;;;;;;;3.30;3.00;;;;;;;22.05;69.88;100162.44;1718415;83;21134;-65
2023/07/23 06:20:40;;;;;;;3.80;3.10;;;;;;;22.28;69.08;100159.67;1683185;85;21479;-63
2023/07/23 06:23:08;;;;;;;3.52;3.00;;;;;;;22.48;68.30;100164.38;1718061;83;21093;-65
2023/07/23 06:25:37;;;;;;;4.08;3.30;;;;;;;22.67;68.51;100161.26;1683144;84;21487;-63
2023/07/23 06:28:06;;;;;;;3.27;2.98;;;;;;;22.87;67.13;100161.82;1683621;84;21031;-64
2023/07/23 06:30:35;;;;;;;3.62;2.90;;;;;;;22.80;66.03;100161.81;1683973;84;21426;-65
2023/07/23 06:33:04;;;;;;;4.65;3.10;;;;;;;22.62;65.82;100162.67;1719236;83;21084;-63
2023/07/23 06:35:37;;;;;;;3.10;2.80;;;;;;;22.50;66.49;100164.94;1718089;83;21481;-64
2023/07/23 06:38:04;;;;;;;3.62;2.75;;;;;;;22.52;67.10;100164.65;1718144;83;21030;-63
2023/07/23 06:40:33;;;;;;;4.42;2.85;;;;;;;22.66;67.23;100154.56;1717984;83;21046;-64
2023/07/23 06:43:03;;;;;;;4.62;2.72;;;;;;;22.90;65.57;100164.05;1682854;84;21043;-67
2023/07/23 06:45:32;;;;;;;3.65;3.30;;;;;;;23.07;65.34;100156.14;1685814;85;21097;-65
2023/07/23 06:48:01;;;;;;;3.17;2.87;;;;;;;23.22;62.75;100160.83;1720939;82;21096;-64
2023/07/23 06:50:31;;;;;;;4.03;2.80;;;;;;;23.25;63.26;100157.45;1715695;84;21054;-73
2023/07/23 06:52:59;;;;;;;4.03;3.00;;;;;;;23.37;63.46;100162.70;1715473;84;21073;-64
2023/07/23 06:55:31;;;;;;;4.22;2.83;;;;;;;23.38;63.00;100161.58;1715644;82;21462;-65
2023/07/23 06:58:00;;;;;;;2.70;2.50;;;;;;;23.39;62.72;100166.88;1696004;84;21109;-65
2023/07/23 07:00:29;;;;;;;3.00;2.70;;;;;;;23.51;62.75;100167.13;1715755;84;21062;-65
2023/07/23 07:02:58;;;;;;;4.60;2.90;;;;;;;23.70;62.80;100158.36;1681044;84;21058;-65
2023/07/23 07:05:27;;;;;;;5.75;2.60;;;;;;;23.88;61.46;100162.42;1681488;85;21470;-65
2023/07/23 07:07:56;;;;;;;3.90;2.72;;;;;;;23.96;61.12;100167.39;1681094;85;21146;-64
2023/07/23 07:10:26;;;;;;;3.60;3.08;;;;;;;23.95;61.04;100167.13;1681183;85;21034;-65
2023/07/23 07:12:54;;;;;;;4.42;3.05;;;;;;;23.99;62.06;100167.64;1681040;85;21027;-65
2023/07/23 07:15:23;;;;;;;5.85;3.20;;;;;;;24.18;61.60;100156.59;1681097;85;21020;-64
2023/07/23 07:17:53;;;;;;;3.55;3.15;;;;;;;24.40;60.11;100156.70;1681263;85;21074;-65
2023/07/23 07:20:21;;;;;;;3.92;3.00;;;;;;;24.47;59.73;100165.03;1680921;84;21046;-64
2023/07/23 07:22:50;;;;;;;3.55;3.05;;;;;;;24.44;59.34;100161.98;1681039;85;21051;-64
2023/07/23 07:25:19;;;;;;;4.45;3.27;;;;;;;24.34;59.06;100154.52;1681070;85;21107;-67
2023/07/23 07:27:48;;;;;;;6.30;2.98;;;;;;;24.36;59.31;100151.42;1681244;85;21067;-65
2023/07/23 07:30:17;;;;;;;6.10;3.00;;;;;;;24.46;59.25;100154.12;1681146;85;21427;-65
2023/07/23 07:32:45;;;;;;;4.20;3.10;;;;;;;24.47;58.21;100155.80;1680958;85;21465;-65
2023/07/23 07:35:14;;;;;;;4.53;3.50;;;;;;;24.42;59.08;100158.64;1681242;85;21467;-65
2023/07/23 07:37:43;;;;;;;3.90;3.25;;;;;;;24.43;59.35;100162.55;1680955;85;21152;-65
2023/07/23 07:40:14;;;;;;;4.03;3.12;;;;;;;24.51;58.74;100162.47;1681241;85;21035;-65
2023/07/23 07:42:43;;;;;;;3.72;3.22;;;;;;;24.49;57.81;100161.94;1684506;84;21042;-64
2023/07/23 07:45:12;;;;;;;4.03;3.20;;;;;;;24.56;57.84;100162.42;1680758;83;21063;-64
2023/07/23 07:47:41;;;;;;;6.25;3.10;;;;;;;24.74;56.24;100165.89;1680970;84;21154;-66
2023/07/23 07:50:11;;;;;;;6.05;2.87;;;;;;;24.92;56.27;100160.91;1680869;85;21026;-64
2023/07/23 07:52:40;;;;;;;4.17;3.15;;;;;;;25.14;56.04;100171.61;1680714;85;21011;-64
2023/07/23 07:55:10;;;;;;;3.90;3.08;;;;;;;25.38;54.76;100164.58;1680913;84;21086;-64
2023/07/23 07:57:40;;;;;;;3.17;2.75;;;;;;;25.58;53.55;100169.91;1680679;85;21079;-64
2023/07/23 08:00:10;;;;;;;4.20;3.05;;;;;;;25.72;53.03;100165.80;1681010;85;21031;-65
2023/07/23 08:02:40;;;;;;;3.20;2.90;;;;;;;25.74;52.27;100171.11;1684407;85;21078;-65
2023/07/23 08:05:11;;;;;;;4.22;3.47;;;;;;;25.65;52.44;100167.28;1681247;84;21079;-64
2023/07/23 08:07:41;;;;;;;4.50;3.40;;;;;;;25.69;52.23;100166.98;1681008;85;21043;-65
2023/07/23 08:10:11;;;;;;;5.45;3.60;;;;;;;25.78;52.59;100176.37;1680747;85;21115;-65
2023/07/23 08:12:40;;;;;;;4.78;3.25;;;;;;;25.88;52.47;100176.22;1680907;85;21058;-66
2023/07/23 08:15:11;;;;;;;3.12;2.83;;;;;;;25.91;52.65;100177.02;1681025;85;21069;-66
2023/07/23 08:17:40;;;;;;;3.10;2.67;;;;;;;25.97;51.77;100188.42;1680132;84;21070;-68
2023/07/23 08:20:11;;;;;;;5.03;3.35;;;;;;;26.11;51.33;100179.52;1649982;85;21242;-68
2023/07/23 08:22:42;;;;;;;4.20;3.47;;;;;;;26.26;50.91;100184.61;1649364;85;21058;-68
2023/07/23 08:25:13;;;;;;;9.38;3.90;;;;;;;26.26;50.54;100179.83;1652273;86;21028;-69
2023/07/23 08:27:42;;;;;;;4.53;3.05;;;;;;;26.20;50.91;100177.67;1647628;86;21487;-67
2023/07/23 08:30:12;;;;;;;4.17;3.20;;;;;;;26.27;50.56;100182.89;1662198;86;21098;-75
2023/07/23 08:32:41;;;;;;;4.17;3.60;;;;;;;26.37;50.33;100183.32;1663547;85;21083;-65
2023/07/23 08:35:12;;;;;;;5.03;3.12;;;;;;;26.49;48.77;100186.47;1658321;85;21095;-71
2023/07/23 08:37:43;;;;;;;4.17;2.98;;;;;;;26.49;48.77;100186.47;1651686;87;21479;-69
2023/07/23 08:40:15;;;;;;;4.08;3.30;;;;;;;26.50;48.21;100180.55;1651741;87;21079;-71
2023/07/23 08:43:17;;;;;;;5.83;3.60;;;;;;;26.37;48.24;100186.13;1651550;86;21076;-69
2023/07/23 08:46:12;;;;;;;3.75;3.30;;;;;;;26.20;48.27;100193.13;1649740;86;21163;-69
2023/07/23 08:49:05;;;;;;;3.90;3.47;;;;;;;26.09;49.54;100178.98;1649781;86;21115;-69
2023/07/23 08:51:41;;;;;;;5.28;3.60;;;;;;;26.12;49.63;100179.78;1649559;86;21059;-67
2023/07/23 08:54:11;;;;;;;4.90;3.33;;;;;;;26.12;49.63;100179.78;1644625;86;21162;-70
2023/07/23 08:56:42;;;;;;;7.90;3.85;;;;;;;26.20;49.00;100183.30;1654286;86;21081;-69
2023/07/23 08:59:13;;;;;;;5.08;3.45;;;;;;;26.27;48.58;100189.92;1643218;86;21111;-70
2023/07/23 09:01:42;;;;;;;3.90;3.33;;;;;;;26.38;47.58;100190.03;1661716;85;21359;-70
2023/07/23 09:04:13;;;;;;;8.05;3.75;;;;;;;26.32;48.07;100185.62;1661556;85;21043;-70
2023/07/23 09:06:44;;;;;;;3.60;3.08;;;;;;;26.21;46.52;100186.36;1661477;86;21015;-67
2023/07/23 09:09:16;;;;;;;4.00;3.50;;;;;;;26.16;47.15;100192.06;1710750;82;21023;-69
2023/07/23 09:11:45;;;;;;;4.25;3.20;;;;;;;26.19;47.70;100190.05;1710607;82;21030;-69
2023/07/23 09:14:15;;;;;;;4.03;3.42;;;;;;;26.28;48.40;100191.59;1710546;84;21022;-70
2023/07/23 09:16:47;;;;;;;4.00;3.60;;;;;;;26.32;48.11;100190.41;1710713;83;21010;-69
2023/07/23 09:19:29;;;;;;;5.28;3.33;;;;;;;26.23;47.81;100185.48;1710724;84;21062;-70
2023/07/23 09:21:58;;;;;;;4.60;3.50;;;;;;;26.11;47.95;100175.30;1710736;84;21069;-70
2023/07/23 09:24:35;;;;;;;5.10;3.20;;;;;;;26.03;48.21;100182.19;1710619;83;21537;-70
2023/07/23 09:27:09;;;;;;;4.97;3.12;;;;;;;25.82;47.13;100184.45;1710592;83;21026;-69
2023/07/23 09:29:43;;;;;;;4.25;3.15;;;;;;;25.82;47.13;100184.45;1701437;84;21071;-69
2023/07/23 09:32:25;;;;;;;3.10;2.80;;;;;;;25.79;47.54;100197.69;1651885;86;21483;-70
2023/07/23 09:34:55;;;;;;;3.37;2.95;;;;;;;25.72;47.06;100196.67;1668560;85;21023;-70
2023/07/23 09:37:29;;;;;;;3.77;3.25;;;;;;;25.62;47.20;100198.77;1670369;86;21067;-69
2023/07/23 09:39:59;;;;;;;3.65;3.00;;;;;;;25.59;47.78;100201.60;1670542;86;21048;-71
2023/07/23 09:42:28;;;;;;;3.33;3.02;;;;;;;25.47;46.93;100195.03;1672566;85;21075;-70
2023/07/23 09:45:02;;;;;;;7.08;3.00;;;;;;;25.33;48.33;100189.87;1672982;85;21091;-69
2023/07/23 09:47:31;;;;;;;4.03;3.12;;;;;;;25.32;47.44;100183.98;1669603;86;21527;-68
2023/07/23 09:50:00;;;;;;;5.03;3.50;;;;;;;25.34;47.96;100185.09;1669993;85;21096;-72
2023/07/23 09:52:35;;;;;;;5.03;3.60;;;;;;;25.33;48.68;100182.85;1670074;86;21526;-69
2023/07/23 09:55:05;;;;;;;6.97;3.83;;;;;;;25.34;48.76;100186.49;1669986;86;21075;-69
2023/07/23 09:57:34;;;;;;;3.50;3.10;;;;;;;25.29;48.93;100184.59;1669910;86;21523;-70
2023/07/23 10:00:05;;;;;;;4.53;3.17;;;;;;;25.26;49.59;100195.01;1669907;86;21076;-68
2023/07/23 10:02:42;;;;;;;4.03;3.08;;;;;;;25.26;48.88;100183.80;1669953;85;21072;-69
2023/07/23 10:05:13;;;;;;;4.25;3.12;;;;;;;25.23;48.78;100197.02;1670003;86;21056;-73
2023/07/23 10:07:42;;;;;;;4.25;3.40;;;;;;;25.23;48.04;100188.03;1651351;86;21500;-67
2023/07/23 10:10:13;;;;;;;3.02;2.80;;;;;;;25.15;48.67;100192.06;1669953;85;21064;-67
2023/07/23 10:12:43;;;;;;;5.78;3.35;;;;;;;25.08;47.39;100192.43;1651568;86;21779;-70
2023/07/23 10:15:13;;;;;;;5.92;3.25;;;;;;;25.06;48.28;100189.66;1669735;85;21091;-69
2023/07/23 10:17:46;;;;;;;5.35;3.10;;;;;;;25.12;47.69;100192.66;1651008;86;21569;-70
2023/07/23 10:20:16;;;;;;;3.87;3.00;;;;;;;25.08;46.38;100184.02;1669760;86;21040;-71
2023/07/23 10:22:46;;;;;;;4.15;3.10;;;;;;;25.10;47.07;100194.94;1669923;86;21047;-70
2023/07/23 10:25:32;;;;;;;4.95;3.33;;;;;;;25.17;47.32;100189.23;1670041;85;21055;-69
2023/07/23 10:28:06;;;;;;;3.30;2.98;;;;;;;25.22;47.23;100192.53;1666971;86;21047;-69
2023/07/23 10:30:38;;;;;;;8.70;5.20;;;;;;;25.21;46.10;100188.06;1662264;85;21094;-70
2023/07/23 10:33:15;;;;;;;5.75;3.62;;;;;;;25.12;47.08;100182.28;1651798;85;21090;-70
2023/07/23 10:35:56;;;;;;;3.37;2.87;;;;;;;25.10;47.72;100186.52;1680637;85;21078;-69
2023/07/23 10:38:35;;;;;;;3.35;2.70;;;;;;;25.09;45.09;100186.25;1651755;85;21082;-70
2023/07/23 10:41:05;;;;;;;3.35;2.72;;;;;;;25.06;44.74;100185.45;1700088;83;21077;-69
2023/07/23 10:43:46;;;;;;;2.87;2.45;;;;;;;25.00;44.36;100183.84;1725643;82;21033;-69
2023/07/23 10:46:20;;;;;;;3.67;2.80;;;;;;;24.94;44.83;100182.47;1724906;81;21037;-71
2023/07/23 10:48:52;;;;;;;3.35;2.50;;;;;;;24.90;44.08;100184.20;1741546;81;21462;-70
2023/07/23 10:51:22;;;;;;;3.27;2.65;;;;;;;24.88;43.71;100182.27;1718175;82;21085;-69
2023/07/23 10:54:06;;;;;;;2.70;2.50;;;;;;;24.86;42.75;100183.13;1718150;82;21046;-70
2023/07/23 10:56:37;;;;;;;4.10;2.60;;;;;;;24.86;41.77;100179.48;1718167;83;21086;-70
2023/07/23 10:59:16;;;;;;;3.85;3.05;;;;;;;24.84;41.98;100176.16;1718268;82;21010;-69
2023/07/23 11:01:46;;;;;;;4.37;2.77;;;;;;;24.85;41.48;100178.66;1718278;82;21053;-69
2023/07/23 11:04:26;;;;;;;3.60;2.90;;;;;;;24.94;41.62;100176.86;1718244;82;21030;-69
2023/07/23 11:07:04;;;;;;;7.05;2.75;;;;;;;25.07;42.07;100180.95;1718075;82;21054;-69
2023/07/23 11:09:35;;;;;;;3.12;2.50;;;;;;;25.15;42.23;100179.45;1718211;83;21037;-68
2023/07/23 11:12:08;;;;;;;7.67;2.77;;;;;;;25.17;41.51;100176.61;1718248;82;21073;-67
2023/07/23 11:14:38;;;;;;;3.47;2.42;;;;;;;25.19;40.91;100173.51;1718183;82;21041;-66
2023/07/23 11:17:07;;;;;;;2.90;2.50;;;;;;;25.21;40.87;100172.07;1718131;82;21063;-67
2023/07/23 11:19:44;;;;;;;4.15;2.60;;;;;;;25.22;41.27;100175.71;1737597;82;21034;-67
2023/07/23 11:22:12;;;;;;;4.20;2.42;;;;;;;25.22;38.82;100171.50;1718157;82;21065;-67
2023/07/23 11:24:41;;;;;;;2.77;2.47;;;;;;;25.15;39.43;100171.88;1691058;83;21125;-67
2023/07/23 11:27:10;;;;;;;2.70;2.25;;;;;;;25.14;40.20;100170.77;1718434;82;21050;-61
2023/07/23 11:29:39;;;;;;;3.25;2.17;;;;;;;25.18;40.27;100167.63;1706713;83;21074;-67
2023/07/23 11:32:09;;;;;;;5.10;2.67;;;;;;;25.21;40.55;100176.28;1655983;84;21487;-69
2023/07/23 11:34:37;;;;;;;3.08;2.45;;;;;;;25.17;40.42;100164.56;1704684;84;21032;-70